Time;durP1;ratioP1;P1;durP2;ratioP2;P2;SDS_P1;SDS_P2;PMS_P1;PMS_P2;Temp;Humidity;BMP_temperature;BMP_pressure;BME280_temperature;BME280_humidity;BME280_pressure;Samples;Min_cycle;Max_cycle;Signal;HPM_P1;HPM_P2
2022/03/14 00:00:47;;;;;;;;;;;7.30;85.80;;;;;;5078311;28;19908;-71
2022/03/14 00:03:14;;;;;;;;;;;7.30;85.70;;;;;;5075556;28;19920;-72
2022/03/14 00:05:40;;;;;;;;;;;7.30;85.60;;;;;;5075781;28;20383;-71
2022/03/14 00:08:06;;;;;;;;;;;7.30;85.50;;;;;;5060539;28;19909;-71
2022/03/14 00:10:32;;;;;;;;;;;7.40;85.50;;;;;;5078013;28;19908;-71
2022/03/14 00:12:58;;;;;;;;;;;7.30;85.60;;;;;;5059634;28;19943;-72
2022/03/14 00:15:28;;;;;;;;;;;7.40;85.70;;;;;;5077607;28;20330;-71
2022/03/14 00:17:54;;;;;;;;;;;7.30;85.90;;;;;;5078334;28;19974;-72
2022/03/14 00:20:20;;;;;;;;;;;7.30;85.90;;;;;;5077801;28;20339;-72
2022/03/14 00:22:47;;;;;;;;;;;7.40;86.20;;;;;;5077845;28;20098;-71
2022/03/14 00:25:13;;;;;;;;;;;7.30;86.30;;;;;;5077841;28;20387;-71
2022/03/14 00:27:39;;;;;;;;;;;7.30;86.60;;;;;;5077989;28;19969;-71
2022/03/14 00:30:05;;;;;;;;;;;7.30;86.80;;;;;;5077962;28;20384;-71
2022/03/14 00:32:31;;;;;;;;;;;7.30;87.00;;;;;;5077663;28;19915;-72
2022/03/14 00:34:57;;;;;;;;;;;7.30;87.20;;;;;;5077479;28;19908;-71
2022/03/14 00:37:23;;;;;;;;;;;7.30;87.30;;;;;;5059724;28;20018;-71
2022/03/14 00:39:49;;;;;;;;;;;7.30;87.50;;;;;;5077622;28;19909;-72
2022/03/14 00:42:15;;;;;;;;;;;7.30;87.70;;;;;;5065678;28;19909;-71
2022/03/14 00:44:43;;;;;;;;;;;7.30;88.00;;;;;;5076587;28;20003;-71
2022/03/14 00:47:09;;;;;;;;;;;7.40;88.40;;;;;;5077541;28;19928;-72
2022/03/14 00:49:34;;;;;;;;;;;7.40;88.20;;;;;;5077270;28;19915;-71
2022/03/14 00:52:00;;;;;;;;;;;7.40;88.60;;;;;;5077763;28;19916;-71
2022/03/14 00:54:26;;;;;;;;;;;7.40;88.50;;;;;;5077340;28;19915;-71
2022/03/14 00:56:52;;;;;;;;;;;7.40;88.30;;;;;;5077615;28;19909;-71
2022/03/14 00:59:17;;;;;;;;;;;7.40;88.60;;;;;;5077489;28;19908;-71
2022/03/14 01:01:43;;;;;;;;;;;7.50;88.50;;;;;;5077831;28;20363;-71
2022/03/14 01:04:09;;;;;;;;;;;7.50;89.00;;;;;;5076814;28;19916;-71
2022/03/14 01:06:35;;;;;;;;;;;7.50;89.10;;;;;;5063589;28;19954;-72
2022/03/14 01:09:01;;;;;;;;;;;7.50;89.00;;;;;;5081349;28;19909;-71
2022/03/14 01:11:26;;;;;;;;;;;7.50;89.00;;;;;;5081744;28;19958;-71
2022/03/14 01:13:52;;;;;;;;;;;7.50;89.20;;;;;;5081296;28;19915;-71
2022/03/14 01:16:18;;;;;;;;;;;7.50;88.70;;;;;;5081584;28;19916;-72
2022/03/14 01:18:43;;;;;;;;;;;7.60;88.20;;;;;;5081052;28;19919;-71
2022/03/14 01:21:09;;;;;;;;;;;7.60;87.90;;;;;;5081422;28;19922;-71
2022/03/14 01:23:35;;;;;;;;;;;7.60;87.90;;;;;;5081342;28;20370;-72
2022/03/14 01:26:00;;;;;;;;;;;7.60;88.10;;;;;;5081256;28;19912;-72
2022/03/14 01:28:26;;;;;;;;;;;7.60;88.00;;;;;;5063277;28;19909;-71
2022/03/14 01:30:52;;;;;;;;;;;7.60;87.60;;;;;;5081272;28;19909;-71
2022/03/14 01:33:17;;;;;;;;;;;7.60;87.40;;;;;;5081058;28;19923;-71
2022/03/14 01:35:44;;;;;;;;;;;7.60;87.20;;;;;;5063153;28;19908;-71
2022/03/14 01:38:11;;;;;;;;;;;7.60;87.20;;;;;;5063075;28;19939;-71
2022/03/14 01:40:36;;;;;;;;;;;7.70;87.30;;;;;;5080165;28;19916;-72
2022/03/14 01:43:02;;;;;;;;;;;7.70;87.50;;;;;;5067405;28;19909;-71
2022/03/14 01:45:28;;;;;;;;;;;7.70;87.60;;;;;;5080820;28;19924;-71
2022/03/14 01:47:54;;;;;;;;;;;7.70;87.40;;;;;;5062841;28;19908;-72
2022/03/14 01:50:20;;;;;;;;;;;7.70;87.50;;;;;;5080706;28;20004;-71
2022/03/14 01:52:46;;;;;;;;;;;7.70;87.70;;;;;;5080664;28;19995;-71
2022/03/14 01:55:14;;;;;;;;;;;7.70;88.00;;;;;;5080652;28;19912;-71
2022/03/14 01:57:40;;;;;;;;;;;7.70;88.00;;;;;;5080572;28;19913;-71
2022/03/14 02:00:07;;;;;;;;;;;7.70;87.80;;;;;;5080934;28;19957;-72
2022/03/14 02:02:33;;;;;;;;;;;7.70;87.70;;;;;;5080450;28;20366;-71
2022/03/14 02:04:58;;;;;;;;;;;7.70;87.80;;;;;;5087383;28;19916;-72
2022/03/14 02:07:25;;;;;;;;;;;7.70;88.40;;;;;;5080120;28;19912;-71
2022/03/14 02:09:50;;;;;;;;;;;7.70;88.10;;;;;;5080602;28;19908;-72
2022/03/14 02:12:16;;;;;;;;;;;7.70;88.00;;;;;;5080272;28;19958;-72
2022/03/14 02:14:42;;;;;;;;;;;7.70;88.00;;;;;;5079614;28;19914;-72
2022/03/14 02:17:11;;;;;;;;;;;7.80;88.20;;;;;;5062506;28;20360;-72
2022/03/14 02:19:38;;;;;;;;;;;7.70;88.50;;;;;;5080317;28;19909;-71
2022/03/14 02:22:04;;;;;;;;;;;7.80;89.10;;;;;;5080071;28;19913;-72
2022/03/14 02:24:29;;;;;;;;;;;7.80;89.80;;;;;;5080113;28;19916;-71
2022/03/14 02:26:56;;;;;;;;;;;7.80;90.10;;;;;;5080055;28;19916;-72
2022/03/14 02:29:23;;;;;;;;;;;7.70;90.00;;;;;;5080458;28;19985;-72
2022/03/14 02:31:50;;;;;;;;;;;7.80;90.10;;;;;;5079944;28;19913;-72
2022/03/14 02:34:16;;;;;;;;;;;7.70;90.30;;;;;;5079905;28;19931;-71
2022/03/14 02:36:42;;;;;;;;;;;7.70;90.40;;;;;;5079933;28;19908;-72
2022/03/14 02:39:08;;;;;;;;;;;7.70;90.20;;;;;;5079930;28;19913;-72
2022/03/14 02:41:34;;;;;;;;;;;7.70;90.00;;;;;;5061843;28;19909;-72
2022/03/14 02:44:01;;;;;;;;;;;7.70;89.80;;;;;;5080297;28;19919;-72
2022/03/14 02:46:27;;;;;;;;;;;7.70;89.80;;;;;;5079788;28;20019;-72
2022/03/14 02:48:52;;;;;;;;;;;7.70;90.20;;;;;;5080012;28;19944;-72
2022/03/14 02:51:18;;;;;;;;;;;7.80;90.40;;;;;;5061851;28;19923;-71
2022/03/14 02:53:44;;;;;;;;;;;7.80;90.50;;;;;;5079880;28;19947;-72
2022/03/14 02:56:09;;;;;;;;;;;7.70;90.40;;;;;;5079554;28;19995;-72
2022/03/14 02:58:38;;;;;;;;;;;7.80;90.50;;;;;;5079757;28;20375;-72
2022/03/14 03:01:04;;;;;;;;;;;7.70;90.60;;;;;;5079580;28;19908;-72
2022/03/14 03:03:30;;;;;;;;;;;7.80;90.70;;;;;;5079540;28;19916;-72
2022/03/14 03:05:56;;;;;;;;;;;7.80;90.70;;;;;;5079321;28;19920;-72
2022/03/14 03:08:22;;;;;;;;;;;7.70;90.50;;;;;;5079373;28;20440;-72
2022/03/14 03:10:48;;;;;;;;;;;7.70;90.40;;;;;;5079170;28;20364;-72
2022/03/14 03:13:14;;;;;;;;;;;7.70;90.40;;;;;;5070480;28;19913;-71
2022/03/14 03:15:39;;;;;;;;;;;7.70;90.50;;;;;;5074635;28;19912;-71
2022/03/14 03:18:06;;;;;;;;;;;7.80;90.60;;;;;;5079526;28;19914;-71
2022/03/14 03:20:31;;;;;;;;;;;7.70;90.50;;;;;;5060118;28;19909;-72
2022/03/14 03:22:57;;;;;;;;;;;7.70;90.50;;;;;;5079220;28;19909;-72
2022/03/14 03:25:22;;;;;;;;;;;7.80;90.60;;;;;;5078614;28;19970;-71
2022/03/14 03:27:49;;;;;;;;;;;7.80;90.80;;;;;;5079114;28;19951;-72
2022/03/14 03:30:14;;;;;;;;;;;7.80;90.90;;;;;;5078825;28;19916;-72
2022/03/14 03:32:40;;;;;;;;;;;7.80;90.60;;;;;;5078906;28;19954;-72
2022/03/14 03:35:06;;;;;;;;;;;7.80;90.80;;;;;;5078679;28;19957;-72
2022/03/14 03:37:32;;;;;;;;;;;7.80;90.70;;;;;;5078850;28;19994;-72
2022/03/14 03:39:57;;;;;;;;;;;7.80;90.80;;;;;;5078546;28;19916;-72
2022/03/14 03:42:23;;;;;;;;;;;7.80;90.60;;;;;;5078675;28;19991;-72
2022/03/14 03:44:49;;;;;;;;;;;7.80;90.60;;;;;;5078745;28;19955;-72
2022/03/14 03:47:14;;;;;;;;;;;7.80;90.80;;;;;;5078637;28;19946;-71
2022/03/14 03:49:40;;;;;;;;;;;7.80;90.80;;;;;;5078417;28;20298;-72
2022/03/14 03:52:07;;;;;;;;;;;7.80;90.90;;;;;;5078736;28;19912;-72
2022/03/14 03:54:32;;;;;;;;;;;7.80;91.10;;;;;;5078314;28;19923;-72
2022/03/14 03:56:58;;;;;;;;;;;7.80;91.40;;;;;;5078736;28;19908;-72
2022/03/14 03:59:24;;;;;;;;;;;7.80;91.10;;;;;;5065447;28;19951;-72
2022/03/14 04:01:50;;;;;;;;;;;7.80;91.00;;;;;;5078499;28;20042;-72
2022/03/14 04:04:16;;;;;;;;;;;7.80;91.00;;;;;;5069094;28;19943;-72
2022/03/14 04:06:42;;;;;;;;;;;7.80;91.00;;;;;;5078408;28;19909;-72
2022/03/14 04:09:08;;;;;;;;;;;7.80;90.90;;;;;;5060366;28;19915;-73
2022/03/14 04:11:35;;;;;;;;;;;7.80;90.80;;;;;;5078487;28;19908;-73
2022/03/14 04:14:01;;;;;;;;;;;7.80;90.70;;;;;;5064733;28;19909;-72
2022/03/14 04:16:27;;;;;;;;;;;7.80;90.60;;;;;;5078366;28;19908;-72
2022/03/14 04:18:53;;;;;;;;;;;7.80;90.90;;;;;;5077843;28;19912;-73
2022/03/14 04:21:20;;;;;;;;;;;7.80;91.20;;;;;;5078191;28;19913;-72
2022/03/14 04:23:46;;;;;;;;;;;7.70;91.40;;;;;;5078057;28;19987;-72
2022/03/14 04:26:12;;;;;;;;;;;7.80;91.50;;;;;;5059932;28;19951;-73
2022/03/14 04:28:39;;;;;;;;;;;7.70;91.50;;;;;;5077882;28;19908;-73
2022/03/14 04:31:09;;;;;;;;;;;7.80;91.40;;;;;;5078096;28;19908;-72
2022/03/14 04:33:35;;;;;;;;;;;7.80;91.40;;;;;;5077582;28;19919;-72
2022/03/14 04:36:01;;;;;;;;;;;7.80;91.20;;;;;;5077963;28;19913;-72
2022/03/14 04:38:27;;;;;;;;;;;7.70;91.10;;;;;;5077378;28;19909;-72
2022/03/14 04:40:53;;;;;;;;;;;7.80;91.40;;;;;;5077513;28;19908;-72
2022/03/14 04:43:20;;;;;;;;;;;7.70;91.40;;;;;;5077804;28;19954;-72
2022/03/14 04:45:46;;;;;;;;;;;7.70;91.50;;;;;;5077589;28;20078;-72
2022/03/14 04:48:12;;;;;;;;;;;7.80;91.50;;;;;;5077639;28;19916;-72
2022/03/14 04:50:38;;;;;;;;;;;7.70;91.60;;;;;;5077673;28;19908;-72
2022/03/14 04:53:04;;;;;;;;;;;7.70;91.60;;;;;;5077582;28;19971;-72
2022/03/14 04:55:29;;;;;;;;;;;7.70;91.60;;;;;;5077770;28;19909;-72
2022/03/14 04:57:55;;;;;;;;;;;7.70;91.70;;;;;;5073876;28;19909;-72
2022/03/14 05:00:22;;;;;;;;;;;7.70;91.80;;;;;;5069249;28;20302;-72
2022/03/14 05:02:47;;;;;;;;;;;7.70;91.90;;;;;;5077451;28;19931;-72
2022/03/14 05:05:13;;;;;;;;;;;7.70;91.90;;;;;;5069349;28;20371;-72
2022/03/14 05:07:39;;;;;;;;;;;7.70;91.80;;;;;;5077433;28;19932;-72
2022/03/14 05:10:10;;;;;;;;;;;7.70;91.60;;;;;;5077542;28;19908;-72
2022/03/14 05:12:36;;;;;;;;;;;7.70;91.50;;;;;;5055963;28;20376;-72
2022/03/14 05:15:02;;;;;;;;;;;7.70;91.60;;;;;;5050245;28;19931;-72
2022/03/14 05:17:30;;;;;;;;;;;7.70;91.60;;;;;;5077419;28;20375;-72
2022/03/14 05:19:56;;;;;;;;;;;7.70;91.60;;;;;;5077378;28;19909;-72
2022/03/14 05:22:22;;;;;;;;;;;7.70;91.70;;;;;;5059211;28;20384;-72
2022/03/14 05:24:48;;;;;;;;;;;7.70;91.60;;;;;;5077491;28;19978;-72
2022/03/14 05:27:13;;;;;;;;;;;7.70;91.50;;;;;;5077293;28;19909;-72
2022/03/14 05:29:39;;;;;;;;;;;7.70;91.70;;;;;;5077576;28;19917;-71
2022/03/14 05:32:05;;;;;;;;;;;7.70;91.70;;;;;;5059118;28;19931;-72
2022/03/14 05:34:32;;;;;;;;;;;7.70;91.90;;;;;;5059434;28;20275;-72
2022/03/14 05:36:58;;;;;;;;;;;7.70;92.40;;;;;;5077228;28;19909;-72
2022/03/14 05:39:24;;;;;;;;;;;7.70;92.20;;;;;;5077194;28;19915;-72
2022/03/14 05:41:49;;;;;;;;;;;7.70;92.20;;;;;;5077098;28;19908;-72
2022/03/14 05:44:15;;;;;;;;;;;7.60;92.30;;;;;;5077194;28;19955;-72
2022/03/14 05:46:41;;;;;;;;;;;7.60;92.10;;;;;;5077087;28;19920;-72
2022/03/14 05:49:06;;;;;;;;;;;7.60;92.10;;;;;;5079267;28;19948;-71
2022/03/14 05:51:37;;;;;;;;;;;7.60;92.00;;;;;;5080869;28;19955;-72
2022/03/14 05:54:03;;;;;;;;;;;7.60;92.00;;;;;;5062797;28;19908;-72
2022/03/14 05:56:29;;;;;;;;;;;7.60;92.00;;;;;;5080703;28;19995;-72
2022/03/14 05:58:55;;;;;;;;;;;7.60;92.10;;;;;;5050959;28;19995;-72
2022/03/14 06:01:21;;;;;;;;;;;7.60;92.20;;;;;;5080535;28;19916;-72
2022/03/14 06:03:49;;;;;;;;;;;7.50;92.20;;;;;;5072725;28;20500;-71
2022/03/14 06:06:14;;;;;;;;;;;7.60;92.10;;;;;;5080783;28;19917;-73
2022/03/14 06:08:40;;;;;;;;;;;7.60;92.10;;;;;;5080511;28;19912;-75
2022/03/14 06:11:08;;;;;;;;;;;7.60;92.30;;;;;;5080712;28;20382;-71
2022/03/14 06:13:34;;;;;;;;;;;7.50;92.40;;;;;;5068711;28;19909;-75
2022/03/14 06:15:59;;;;;;;;;;;7.60;92.50;;;;;;5078721;28;19912;-72
2022/03/14 06:18:25;;;;;;;;;;;7.50;92.50;;;;;;5080337;28;19909;-73
2022/03/14 06:20:51;;;;;;;;;;;7.60;92.60;;;;;;5080284;28;19951;-71
2022/03/14 06:23:16;;;;;;;;;;;7.60;92.60;;;;;;5079642;28;20417;-76
2022/03/14 06:25:42;;;;;;;;;;;7.60;92.60;;;;;;5062098;28;19913;-76
2022/03/14 06:28:08;;;;;;;;;;;7.50;92.60;;;;;;5080237;28;19916;-79
2022/03/14 06:30:34;;;;;;;;;;;7.50;92.60;;;;;;5062320;28;19908;-78
2022/03/14 06:33:00;;;;;;;;;;;7.50;92.60;;;;;;5080341;28;20279;-78
2022/03/14 06:35:25;;;;;;;;;;;7.60;92.60;;;;;;5079621;28;19908;-77
2022/03/14 06:37:51;;;;;;;;;;;7.50;92.60;;;;;;5080133;28;19909;-77
2022/03/14 06:40:17;;;;;;;;;;;7.60;92.50;;;;;;5079576;28;19916;-80
2022/03/14 06:42:49;;;;;;;;;;;7.60;92.40;;;;;;5062035;28;19915;-81
2022/03/14 06:45:19;;;;;;;;;;;7.60;92.40;;;;;;5079521;28;19931;-80
2022/03/14 06:47:45;;;;;;;;;;;7.60;92.50;;;;;;5079899;28;19909;-77
2022/03/14 06:50:10;;;;;;;;;;;7.60;92.40;;;;;;5079618;28;19916;-76
2022/03/14 06:52:36;;;;;;;;;;;7.60;92.40;;;;;;5079866;28;19976;-78
2022/03/14 06:55:04;;;;;;;;;;;7.60;92.30;;;;;;5061753;28;19909;-77
2022/03/14 06:57:30;;;;;;;;;;;7.60;92.20;;;;;;5078114;28;20399;-77
2022/03/14 06:59:56;;;;;;;;;;;7.60;92.30;;;;;;5066909;28;19974;-77
2022/03/14 07:02:24;;;;;;;;;;;7.60;92.40;;;;;;5079668;28;19908;-77
2022/03/14 07:04:50;;;;;;;;;;;7.60;92.60;;;;;;5069504;28;19980;-77
2022/03/14 07:07:15;;;;;;;;;;;7.60;92.70;;;;;;5067223;28;20351;-77
2022/03/14 07:09:41;;;;;;;;;;;7.60;92.70;;;;;;5076455;28;19917;-78
2022/03/14 07:12:09;;;;;;;;;;;7.70;92.80;;;;;;5070569;28;19934;-78
2022/03/14 07:14:35;;;;;;;;;;;7.60;92.80;;;;;;5070355;28;19912;-78
2022/03/14 07:17:01;;;;;;;;;;;7.60;92.70;;;;;;5079448;28;19916;-78
2022/03/14 07:19:26;;;;;;;;;;;7.60;92.60;;;;;;5078804;28;19916;-78
2022/03/14 07:21:52;;;;;;;;;;;7.60;92.60;;;;;;5079381;28;19963;-77
2022/03/14 07:24:18;;;;;;;;;;;7.70;92.70;;;;;;5078880;28;20342;-77
2022/03/14 07:26:43;;;;;;;;;;;7.60;92.60;;;;;;5079227;28;20037;-77
2022/03/14 07:29:09;;;;;;;;;;;7.60;92.60;;;;;;5078303;28;19909;-77
2022/03/14 07:31:37;;;;;;;;;;;7.70;92.50;;;;;;5079099;28;19913;-77
2022/03/14 07:34:04;;;;;;;;;;;7.70;92.40;;;;;;5075913;28;19909;-77
2022/03/14 07:36:29;;;;;;;;;;;7.70;92.30;;;;;;5059548;28;19908;-78
2022/03/14 07:38:56;;;;;;;;;;;7.70;92.30;;;;;;5078607;28;19916;-78
2022/03/14 07:41:22;;;;;;;;;;;7.70;92.20;;;;;;5078319;28;19934;-78
2022/03/14 07:43:48;;;;;;;;;;;7.80;92.10;;;;;;5078764;28;19916;-78
2022/03/14 07:46:14;;;;;;;;;;;7.80;92.10;;;;;;5078530;28;19920;-78
2022/03/14 07:48:39;;;;;;;;;;;7.80;92.00;;;;;;5060516;28;19916;-78
2022/03/14 07:51:06;;;;;;;;;;;7.80;91.90;;;;;;5073429;28;19958;-78
2022/03/14 07:53:32;;;;;;;;;;;7.80;91.80;;;;;;5071002;28;19916;-78
2022/03/14 07:55:57;;;;;;;;;;;7.90;91.80;;;;;;5078307;28;19908;-78
2022/03/14 07:58:23;;;;;;;;;;;7.90;91.70;;;;;;5078537;28;19908;-78
2022/03/14 08:00:49;;;;;;;;;;;8.00;91.80;;;;;;5078323;28;19908;-78
2022/03/14 08:03:15;;;;;;;;;;;8.00;91.70;;;;;;5075039;28;20358;-78
2022/03/14 08:05:42;;;;;;;;;;;8.00;91.70;;;;;;5077502;28;19971;-78
2022/03/14 08:08:08;;;;;;;;;;;8.10;91.80;;;;;;5078348;28;19913;-78
2022/03/14 08:10:36;;;;;;;;;;;8.10;91.80;;;;;;5078246;28;19915;-78
2022/03/14 08:13:02;;;;;;;;;;;8.20;91.70;;;;;;5072652;28;19931;-78
2022/03/14 08:15:29;;;;;;;;;;;8.30;91.70;;;;;;5076044;28;19913;-78
2022/03/14 08:17:57;;;;;;;;;;;8.40;91.70;;;;;;5078039;28;19909;-78
2022/03/14 08:20:23;;;;;;;;;;;8.50;91.50;;;;;;5068276;28;19921;-78
2022/03/14 08:22:49;;;;;;;;;;;8.70;91.50;;;;;;5077243;28;19908;-78
2022/03/14 08:25:15;;;;;;;;;;;8.80;91.50;;;;;;5077679;28;19913;-78
2022/03/14 08:27:41;;;;;;;;;;;8.90;91.40;;;;;;5078092;28;20012;-78
2022/03/14 08:30:07;;;;;;;;;;;9.10;91.40;;;;;;5077228;28;19913;-78
2022/03/14 08:32:34;;;;;;;;;;;9.20;91.30;;;;;;5077912;28;20356;-78
2022/03/14 08:35:05;;;;;;;;;;;9.20;91.30;;;;;;5059839;28;19916;-78
2022/03/14 08:37:30;;;;;;;;;;;9.30;91.10;;;;;;5077078;28;19916;-78
2022/03/14 08:39:56;;;;;;;;;;;9.30;91.00;;;;;;5076721;28;19968;-79
2022/03/14 08:42:21;;;;;;;;;;;9.40;90.90;;;;;;5077721;28;19951;-78
2022/03/14 08:44:47;;;;;;;;;;;9.60;91.40;;;;;;5077640;28;19912;-78
2022/03/14 08:47:13;;;;;;;;;;;10.10;92.30;;;;;;5077667;28;19920;-79
2022/03/14 08:49:38;;;;;;;;;;;10.90;92.80;;;;;;5059404;28;19908;-79
2022/03/14 08:52:04;;;;;;;;;;;11.90;92.80;;;;;;5077905;28;20337;-80
2022/03/14 08:54:30;;;;;;;;;;;12.90;92.30;;;;;;5077361;28;19912;-80
2022/03/14 08:56:56;;;;;;;;;;;13.70;90.70;;;;;;5058869;28;20288;-80
2022/03/14 08:59:21;;;;;;;;;;;14.50;89.60;;;;;;5077575;28;19940;-81
2022/03/14 09:01:47;;;;;;;;;;;15.10;83.70;;;;;;5077728;28;19915;-80
2022/03/14 09:04:13;;;;;;;;;;;15.70;82.80;;;;;;5077117;28;20371;-81
2022/03/14 09:06:42;;;;;;;;;;;16.10;80.00;;;;;;5077599;28;19908;-81
2022/03/14 09:09:07;;;;;;;;;;;16.50;79.30;;;;;;5077366;28;20303;-81
2022/03/14 09:11:33;;;;;;;;;;;16.90;76.40;;;;;;5077573;28;19938;-80
2022/03/14 09:13:59;;;;;;;;;;;17.30;73.50;;;;;;5058071;28;19920;-81
2022/03/14 09:16:24;;;;;;;;;;;17.70;75.30;;;;;;5077671;28;19908;-80
2022/03/14 09:18:52;;;;;;;;;;;18.10;75.90;;;;;;5077106;28;19962;-81
2022/03/14 09:21:19;;;;;;;;;;;18.60;75.10;;;;;;5077560;28;19909;-81
2022/03/14 09:23:45;;;;;;;;;;;19.10;75.20;;;;;;5079226;28;19916;-81
2022/03/14 09:26:11;;;;;;;;;;;19.50;73.40;;;;;;5081412;28;20398;-82
2022/03/14 09:28:39;;;;;;;;;;;20.00;72.80;;;;;;5081288;28;19909;-81
2022/03/14 09:31:05;;;;;;;;;;;20.30;68.80;;;;;;5081750;28;19915;-81
2022/03/14 09:33:31;;;;;;;;;;;20.60;66.30;;;;;;5080877;28;19964;-80
2022/03/14 09:35:57;;;;;;;;;;;20.80;67.00;;;;;;5081261;28;19908;-82
2022/03/14 09:38:24;;;;;;;;;;;21.10;66.70;;;;;;5080298;28;19965;-80
2022/03/14 09:40:50;;;;;;;;;;;21.30;64.90;;;;;;5061573;28;20027;-81
2022/03/14 09:43:17;;;;;;;;;;;21.50;63.10;;;;;;5068455;28;19913;-81
2022/03/14 09:45:45;;;;;;;;;;;21.80;64.30;;;;;;5066784;28;19942;-82
2022/03/14 09:48:14;;;;;;;;;;;22.10;60.90;;;;;;5077955;28;19916;-81
2022/03/14 09:50:41;;;;;;;;;;;22.30;63.90;;;;;;5078581;28;19916;-81
2022/03/14 09:53:08;;;;;;;;;;;22.60;62.60;;;;;;5080791;28;19909;-82
2022/03/14 09:55:40;;;;;;;;;;;22.80;61.00;;;;;;5062676;28;19919;-83
2022/03/14 09:58:09;;;;;;;;;;;23.00;59.10;;;;;;5080715;28;19913;-82
2022/03/14 10:00:35;;;;;;;;;;;23.20;60.70;;;;;;5080823;28;19947;-82
2022/03/14 10:03:03;;;;;;;;;;;23.40;59.80;;;;;;5077972;28;19912;-81
2022/03/14 10:05:28;;;;;;;;;;;23.70;58.40;;;;;;5060522;28;20433;-82
2022/03/14 10:07:54;;;;;;;;;;;23.90;54.10;;;;;;5051534;28;19912;-83
2022/03/14 10:10:19;;;;;;;;;;;23.90;52.50;;;;;;5079285;28;20314;-83
2022/03/14 10:12:52;;;;;;;;;;;23.70;53.50;;;;;;5077791;28;20406;-81
2022/03/14 10:15:18;;;;;;;;;;;23.60;56.00;;;;;;5078175;28;19923;-84
2022/03/14 10:17:44;;;;;;;;;;;23.60;56.70;;;;;;5070819;28;20264;-82
2022/03/14 10:20:10;;;;;;;;;;;23.80;56.90;;;;;;5067608;28;19920;-78
2022/03/14 10:22:40;;;;;;;;;;;24.10;59.40;;;;;;5070510;28;19909;-80
2022/03/14 10:25:13;;;;;;;;;;;24.60;56.90;;;;;;5060312;28;19936;-80
2022/03/14 10:27:44;;;;;;;;;;;24.70;54.20;;;;;;5075177;28;19932;-81
2022/03/14 10:30:22;;;;;;;;;;;24.60;52.40;;;;;;5062081;28;19930;-81
2022/03/14 10:32:48;;;;;;;;;;;24.60;54.50;;;;;;5075321;28;20003;-81
2022/03/14 10:35:20;;;;;;;;;;;24.80;54.20;;;;;;5078776;28;19917;-81
2022/03/14 10:37:58;;;;;;;;;;;25.00;51.00;;;;;;5079635;28;20333;-78
2022/03/14 10:40:37;;;;;;;;;;;25.20;52.60;;;;;;5077049;28;19912;-82
2022/03/14 10:43:07;;;;;;;;;;;25.40;48.40;;;;;;5078716;28;19920;-79
2022/03/14 10:45:33;;;;;;;;;;;25.50;50.30;;;;;;5079611;28;19969;-84
2022/03/14 10:47:58;;;;;;;;;;;25.60;51.40;;;;;;5085147;28;19913;-79
2022/03/14 10:50:35;;;;;;;;;;;25.80;52.80;;;;;;5092280;28;19908;-80
2022/03/14 10:53:03;;;;;;;;;;;26.10;52.60;;;;;;5090070;28;19913;-81
2022/03/14 10:55:39;;;;;;;;;;;26.40;53.20;;;;;;5078912;28;19919;-79
2022/03/14 10:58:17;;;;;;;;;;;26.70;51.30;;;;;;5068936;28;19966;-80
2022/03/14 11:00:53;;;;;;;;;;;26.80;49.00;;;;;;5089167;28;19914;-82
2022/03/14 11:03:29;;;;;;;;;;;27.00;48.10;;;;;;5088760;28;19912;-83
2022/03/14 11:05:58;;;;;;;;;;;27.00;46.30;;;;;;5072015;28;19934;-84
2022/03/14 11:08:27;;;;;;;;;;;27.00;46.30;;;;;;5079159;28;19908;-80
2022/03/14 11:10:57;;;;;;;;;;;27.00;49.00;;;;;;5078528;28;19912;-84
2022/03/14 11:13:23;;;;;;;;;;;27.00;48.10;;;;;;5075935;28;19912;-81
2022/03/14 11:15:49;;;;;;;;;;;27.10;49.70;;;;;;5072790;28;20283;-81
2022/03/14 11:18:19;;;;;;;;;;;27.20;45.90;;;;;;5072549;28;19919;-81
2022/03/14 11:20:46;;;;;;;;;;;27.30;47.40;;;;;;5061381;28;20368;-78
2022/03/14 11:23:15;;;;;;;;;;;27.40;45.20;;;;;;5076809;28;19920;-79
2022/03/14 11:25:45;;;;;;;;;;;27.30;45.90;;;;;;5070987;28;20023;-79
2022/03/14 11:28:15;;;;;;;;;;;27.30;46.00;;;;;;5076584;28;19956;-78
2022/03/14 11:30:42;;;;;;;;;;;27.20;44.10;;;;;;5085935;28;19924;-81
2022/03/14 11:33:09;;;;;;;;;;;27.00;43.40;;;;;;5064910;28;20347;-82
2022/03/14 11:35:35;;;;;;;;;;;27.00;45.60;;;;;;5081515;28;19916;-85
2022/03/14 11:38:01;;;;;;;;;;;26.90;43.60;;;;;;5078996;28;20439;-80
2022/03/14 11:40:27;;;;;;;;;;;26.90;43.20;;;;;;5072228;28;19952;-80
2022/03/14 11:42:53;;;;;;;;;;;26.90;44.00;;;;;;5076034;28;19912;-81
2022/03/14 11:45:18;;;;;;;;;;;26.80;43.50;;;;;;5078446;28;20402;-80
2022/03/14 11:47:46;;;;;;;;;;;26.70;42.30;;;;;;5077380;28;19912;-82
2022/03/14 11:50:11;;;;;;;;;;;26.70;42.90;;;;;;5077101;28;19913;-83
2022/03/14 11:52:40;;;;;;;;;;;26.50;43.30;;;;;;5081513;28;19974;-83
2022/03/14 11:55:17;;;;;;;;;;;26.50;42.30;;;;;;5065156;28;20398;-83
2022/03/14 11:57:43;;;;;;;;;;;26.40;41.60;;;;;;5077518;28;19935;-83
2022/03/14 12:00:21;;;;;;;;;;;26.40;44.60;;;;;;5078173;28;19909;-81
2022/03/14 12:02:54;;;;;;;;;;;26.40;43.30;;;;;;5078278;28;20364;-82
2022/03/14 12:05:20;;;;;;;;;;;26.30;43.50;;;;;;5077093;28;19954;-82
2022/03/14 12:07:46;;;;;;;;;;;26.30;41.40;;;;;;5078255;28;19909;-82
2022/03/14 12:10:32;;;;;;;;;;;26.10;40.60;;;;;;5065115;28;19970;-82
2022/03/14 12:13:01;;;;;;;;;;;25.90;41.60;;;;;;5072486;28;19916;-82
2022/03/14 12:15:35;;;;;;;;;;;25.80;42.10;;;;;;5078207;28;20394;-82
2022/03/14 12:18:01;;;;;;;;;;;25.70;42.30;;;;;;5077604;28;19957;-82
2022/03/14 12:20:28;;;;;;;;;;;25.70;43.60;;;;;;5078279;28;19995;-82
2022/03/14 12:22:54;;;;;;;;;;;25.70;41.50;;;;;;5077812;28;19908;-82
2022/03/14 12:25:40;;;;;;;;;;;25.60;41.70;;;;;;5059965;28;19914;-83
2022/03/14 12:28:25;;;;;;;;;;;25.60;43.40;;;;;;5066511;28;19909;-82
2022/03/14 12:30:51;;;;;;;;;;;25.50;41.10;;;;;;5077802;28;20416;-82
2022/03/14 12:33:49;;;;;;;;;;;25.50;42.70;;;;;;5077551;28;19916;-82
2022/03/14 12:36:23;;;;;;;;;;;25.40;41.50;;;;;;5032858;28;19959;-82
2022/03/14 12:39:12;;;;;;;;;;;25.30;41.70;;;;;;5077580;28;19908;-82
2022/03/14 12:41:39;;;;;;;;;;;25.30;41.60;;;;;;5063797;28;19978;-82
2022/03/14 12:44:21;;;;;;;;;;;25.20;43.30;;;;;;5092918;28;19944;-82
2022/03/14 12:46:48;;;;;;;;;;;25.20;42.80;;;;;;5077663;28;19931;-81
2022/03/14 12:49:26;;;;;;;;;;;25.10;40.20;;;;;;5059148;28;20041;-81
2022/03/14 12:52:21;;;;;;;;;;;24.90;40.00;;;;;;5077630;28;19991;-82
2022/03/14 12:54:47;;;;;;;;;;;24.60;41.70;;;;;;5059309;28;19912;-82
2022/03/14 12:57:14;;;;;;;;;;;24.40;41.90;;;;;;5081553;28;19908;-82
2022/03/14 12:59:48;;;;;;;;;;;24.30;42.60;;;;;;5077208;28;19913;-82
2022/03/14 13:02:26;;;;;;;;;;;24.30;42.60;;;;;;5077293;28;19930;-81
2022/03/14 13:05:02;;;;;;;;;;;24.20;41.90;;;;;;5079839;28;20650;-81
2022/03/14 13:07:28;;;;;;;;;;;24.10;43.50;;;;;;5077714;28;19908;-82
2022/03/14 13:09:54;;;;;;;;;;;24.10;44.30;;;;;;5077504;28;19915;-85
2022/03/14 13:12:20;;;;;;;;;;;24.10;43.70;;;;;;5047017;28;19952;-81
2022/03/14 13:14:47;;;;;;;;;;;24.10;43.60;;;;;;5077259;28;19927;-82
2022/03/14 13:17:21;;;;;;;;;;;24.10;41.40;;;;;;5077397;28;20299;-83
2022/03/14 13:19:46;;;;;;;;;;;23.80;41.70;;;;;;5077198;28;20034;-83
2022/03/14 13:22:14;;;;;;;;;;;23.60;41.80;;;;;;5059540;28;19912;-83
2022/03/14 13:24:43;;;;;;;;;;;23.40;44.10;;;;;;5077244;28;20387;-82
2022/03/14 13:27:09;;;;;;;;;;;23.20;42.30;;;;;;5077446;28;19909;-81
2022/03/14 13:29:35;;;;;;;;;;;22.90;42.30;;;;;;5059203;28;19909;-82
2022/03/14 13:32:00;;;;;;;;;;;22.50;42.70;;;;;;5059202;28;19920;-81
2022/03/14 13:34:28;;;;;;;;;;;22.20;44.50;;;;;;5058627;28;20337;-86
2022/03/14 13:37:04;;;;;;;;;;;21.80;44.80;;;;;;5077251;28;19955;-86
2022/03/14 13:39:30;;;;;;;;;;;21.50;45.30;;;;;;5076232;28;19910;-86
2022/03/14 13:41:58;;;;;;;;;;;21.30;46.30;;;;;;5052024;28;19915;-85
2022/03/14 13:44:24;;;;;;;;;;;21.10;47.40;;;;;;5077128;28;20375;-82
2022/03/14 13:46:54;;;;;;;;;;;20.90;46.00;;;;;;5076938;28;20345;-81
2022/03/14 13:49:21;;;;;;;;;;;20.60;45.90;;;;;;5058564;28;19944;-81
2022/03/14 13:52:04;;;;;;;;;;;20.30;46.00;;;;;;5077055;28;19987;-81
2022/03/14 13:54:31;;;;;;;;;;;20.00;48.00;;;;;;5076768;28;19938;-82
2022/03/14 13:57:10;;;;;;;;;;;19.80;48.00;;;;;;5080732;28;19940;-88
2022/03/14 13:59:44;;;;;;;;;;;19.70;47.30;;;;;;5071914;28;20039;-80
2022/03/14 14:02:10;;;;;;;;;;;19.50;47.10;;;;;;5076746;28;19966;-81
2022/03/14 14:04:43;;;;;;;;;;;19.40;48.50;;;;;;5077133;28;19909;-81
2022/03/14 14:07:27;;;;;;;;;;;19.30;48.80;;;;;;5079786;28;19980;-81
2022/03/14 14:09:54;;;;;;;;;;;19.20;48.80;;;;;;5077299;28;19948;-81
2022/03/14 14:12:20;;;;;;;;;;;19.10;50.20;;;;;;5068912;28;19909;-81
2022/03/14 14:14:46;;;;;;;;;;;19.00;49.90;;;;;;5080418;28;19919;-81
2022/03/14 14:17:13;;;;;;;;;;;19.00;49.20;;;;;;5062365;28;19913;-83
2022/03/14 14:19:58;;;;;;;;;;;18.80;48.70;;;;;;5080069;28;19912;-83
2022/03/14 14:22:28;;;;;;;;;;;18.80;49.70;;;;;;5080210;28;19923;-82
2022/03/14 14:24:54;;;;;;;;;;;18.70;49.40;;;;;;5080195;28;19931;-82
2022/03/14 14:27:26;;;;;;;;;;;18.60;49.00;;;;;;5080284;28;19912;-81